createdAt,value
2023-04-27T00:01:28.601Z,43.84
2023-04-27T00:03:55.305Z,44.58
2023-04-27T00:06:22.493Z,44.07
2023-04-27T00:08:53.267Z,44.84
2023-04-27T00:11:27.025Z,44.25
2023-04-27T00:13:53.578Z,43.34
2023-04-27T00:16:28.161Z,44.14
2023-04-27T00:18:54.828Z,46.01
2023-04-27T00:21:21.337Z,46.46
2023-04-27T00:23:48.181Z,46.13
2023-04-27T00:26:14.980Z,46.45
2023-04-27T00:28:41.597Z,45.49
2023-04-27T00:31:09.925Z,45.04
2023-04-27T00:33:40.525Z,45.10
2023-04-27T00:36:07.040Z,45.10
2023-04-27T00:38:33.794Z,44.99
2023-04-27T00:41:00.355Z,45.64
2023-04-27T00:43:28.911Z,45.85
2023-04-27T00:45:55.470Z,46.06
2023-04-27T00:48:22.409Z,46.26
2023-04-27T00:50:49.014Z,45.82
2023-04-27T00:53:15.560Z,43.13
2023-04-27T00:55:42.361Z,42.63
2023-04-27T00:58:11.154Z,43.54
2023-04-27T01:00:37.941Z,43.72
2023-04-27T01:03:04.731Z,42.88
2023-04-27T01:05:32.582Z,42.03
2023-04-27T01:07:59.334Z,41.56
2023-04-27T01:10:26.230Z,42.00
2023-04-27T01:12:53.048Z,41.57
2023-04-27T01:15:20.900Z,41.02
2023-04-27T01:17:47.755Z,41.77
2023-04-27T01:20:14.381Z,42.45
2023-04-27T01:22:41.128Z,42.45
2023-04-27T01:25:07.684Z,43.68
2023-04-27T01:27:34.275Z,44.36
2023-04-27T01:30:01.174Z,46.50
2023-04-27T01:32:29.253Z,47.81
2023-04-27T01:34:55.801Z,46.89
2023-04-27T01:37:22.408Z,47.92
2023-04-27T01:39:48.927Z,47.42
2023-04-27T01:42:15.479Z,47.72
2023-04-27T01:44:49.321Z,47.97
2023-04-27T01:47:18.111Z,47.88
2023-04-27T01:49:46.222Z,47.59
2023-04-27T01:52:12.712Z,47.22
2023-04-27T01:54:39.851Z,47.60
2023-04-27T01:57:06.497Z,47.82
2023-04-27T01:59:32.985Z,47.10
2023-04-27T02:01:59.848Z,46.24
2023-04-27T02:04:26.829Z,46.12
2023-04-27T02:06:53.777Z,46.30
2023-04-27T02:09:21.178Z,48.12
2023-04-27T02:11:47.928Z,48.41
2023-04-27T02:14:14.493Z,47.91
2023-04-27T02:16:41.439Z,47.80
2023-04-27T02:19:09.092Z,48.84
2023-04-27T02:21:35.901Z,48.76
2023-04-27T02:24:06.539Z,49.75
2023-04-27T02:26:33.245Z,49.63
2023-04-27T02:29:00.136Z,50.30
2023-04-27T02:31:27.246Z,50.66
2023-04-27T02:33:53.926Z,50.62
2023-04-27T02:36:22.893Z,49.98
2023-04-27T02:38:51.508Z,48.31
2023-04-27T02:41:17.979Z,48.43
2023-04-27T02:43:44.491Z,49.54
2023-04-27T02:46:11.490Z,49.83
2023-04-27T02:48:38.397Z,50.09
2023-04-27T02:51:07.947Z,49.59
2023-04-27T02:53:34.507Z,50.39
2023-04-27T02:56:01.034Z,48.96
2023-04-27T02:58:33.761Z,49.06
2023-04-27T03:01:00.735Z,49.72
2023-04-27T03:03:27.409Z,49.60
2023-04-27T03:05:54.139Z,49.82
2023-04-27T03:08:21.503Z,49.21
2023-04-27T03:10:48.034Z,49.54
2023-04-27T03:13:14.668Z,48.95
2023-04-27T03:15:41.224Z,48.96
2023-04-27T03:18:07.980Z,49.04
2023-04-27T03:20:34.590Z,48.35
2023-04-27T03:23:01.464Z,47.70
2023-04-27T03:25:28.180Z,49.64
2023-04-27T03:27:55.105Z,50.39
2023-04-27T03:30:21.721Z,50.76
2023-04-27T03:32:48.272Z,49.74
2023-04-27T03:35:17.244Z,48.82
2023-04-27T03:37:44.062Z,47.49
2023-04-27T03:40:10.563Z,48.52
2023-04-27T03:42:37.189Z,49.49
2023-04-27T03:47:34.633Z,49.33
2023-04-27T03:50:02.129Z,49.54
2023-04-27T03:52:28.972Z,48.52
2023-04-27T03:54:55.630Z,49.06
2023-04-27T03:57:22.167Z,48.57
2023-04-27T03:59:48.915Z,47.34
2023-04-27T04:02:15.868Z,45.93
2023-04-27T04:04:43.081Z,45.41
2023-04-27T04:07:10.591Z,47.58
2023-04-27T04:09:37.174Z,48.08
2023-04-27T04:12:04.073Z,47.56
2023-04-27T04:14:35.074Z,45.80
2023-04-27T04:17:01.672Z,45.39
2023-04-27T04:19:28.419Z,44.63
2023-04-27T04:21:54.940Z,45.46
2023-04-27T04:24:21.685Z,45.84
2023-04-27T04:26:48.202Z,47.27
2023-04-27T04:29:15.059Z,48.48
2023-04-27T04:31:48.779Z,48.23
2023-04-27T04:34:17.235Z,46.58
2023-04-27T04:36:43.782Z,45.98
2023-04-27T04:39:10.333Z,46.96
2023-04-27T04:41:36.780Z,48.27
2023-04-27T04:44:03.645Z,48.76
2023-04-27T04:46:30.227Z,48.39
2023-04-27T04:48:56.750Z,50.23
2023-04-27T04:51:23.259Z,49.78
2023-04-27T04:53:49.822Z,48.71
2023-04-27T04:56:16.419Z,46.97
2023-04-27T04:58:43.283Z,47.57
2023-04-27T05:01:09.891Z,48.78
2023-04-27T05:03:36.664Z,48.75
2023-04-27T05:06:06.946Z,47.88
2023-04-27T05:08:35.965Z,46.82
2023-04-27T05:11:02.619Z,46.15
2023-04-27T05:13:31.319Z,43.89
2023-04-27T05:15:58.040Z,41.03
2023-04-27T05:18:24.747Z,37.57
2023-04-27T05:20:53.659Z,36.04
2023-04-27T05:23:20.164Z,34.26
2023-04-27T05:25:49.393Z,32.69
2023-04-27T05:28:16.296Z,31.49
2023-04-27T05:30:45.583Z,30.80
2023-04-27T05:33:14.506Z,29.52
2023-04-27T05:35:42.850Z,29.04
2023-04-27T05:38:09.507Z,28.40
2023-04-27T05:40:36.328Z,27.23
2023-04-27T05:43:02.770Z,27.08
2023-04-27T05:45:33.410Z,27.31
2023-04-27T05:50:47.669Z,28.08
2023-04-27T05:53:19.164Z,29.57
2023-04-27T05:55:46.353Z,30.20
2023-04-27T05:58:12.868Z,29.30
2023-04-27T06:00:40.527Z,29.03
2023-04-27T06:03:07.344Z,30.78
2023-04-27T06:05:34.354Z,30.67
2023-04-27T06:08:01.337Z,29.87
2023-04-27T06:10:28.076Z,28.77
2023-04-27T06:12:55.670Z,27.91
2023-04-27T06:15:29.625Z,27.20
2023-04-27T06:17:56.253Z,26.36
2023-04-27T06:20:22.915Z,25.63
2023-04-27T06:22:53.242Z,25.49
2023-04-27T06:25:23.742Z,25.90
2023-04-27T06:27:53.480Z,25.53
2023-04-27T06:30:20.454Z,26.46
2023-04-27T06:32:47.253Z,26.40
2023-04-27T06:35:13.807Z,26.13
2023-04-27T06:37:40.481Z,25.98
2023-04-27T06:40:07.933Z,25.90
2023-04-27T06:42:34.713Z,26.68
2023-04-27T06:45:02.203Z,27.32
2023-04-27T06:47:29.807Z,29.17
2023-04-27T06:49:57.476Z,30.38
2023-04-27T06:52:24.057Z,30.05
2023-04-27T06:54:52.173Z,29.48
2023-04-27T06:57:19.899Z,29.76
2023-04-27T06:59:49.593Z,30.22
2023-04-27T07:02:16.761Z,30.78
2023-04-27T07:04:45.978Z,30.85
2023-04-27T07:07:13.143Z,31.99
2023-04-27T07:09:39.630Z,31.41
2023-04-27T07:12:06.522Z,31.24
2023-04-27T07:14:33.179Z,31.02
2023-04-27T07:17:00.797Z,30.64
2023-04-27T07:19:27.748Z,29.41
2023-04-27T07:21:54.339Z,29.91
2023-04-27T07:24:23.316Z,31.87
2023-04-27T07:26:49.912Z,33.88
2023-04-27T07:29:26.341Z,34.17
2023-04-27T07:31:54.354Z,35.35
2023-04-27T07:34:22.367Z,34.56
2023-04-27T07:36:48.960Z,34.51
2023-04-27T07:39:20.537Z,33.62
2023-04-27T07:41:47.905Z,34.12
2023-04-27T07:44:14.833Z,33.00
2023-04-27T07:46:42.890Z,32.08
2023-04-27T07:49:10.220Z,32.36
2023-04-27T07:51:37.084Z,32.93
2023-04-27T07:54:03.946Z,32.91
2023-04-27T07:56:31.657Z,32.13
2023-04-27T07:58:58.409Z,33.88
2023-04-27T08:01:25.045Z,34.58
2023-04-27T08:03:51.974Z,35.24
2023-04-27T08:06:19.845Z,35.08
2023-04-27T08:08:46.773Z,35.59
2023-04-27T08:11:13.686Z,34.72
2023-04-27T08:13:40.146Z,36.29
2023-04-27T08:16:10.035Z,37.55
2023-04-27T08:18:36.923Z,36.98
2023-04-27T08:21:03.755Z,36.80
2023-04-27T08:23:30.436Z,36.63
2023-04-27T08:25:57.265Z,36.72
2023-04-27T08:28:24.599Z,36.16
2023-04-27T08:30:51.106Z,36.19
2023-04-27T08:33:17.650Z,36.42
2023-04-27T08:35:44.664Z,37.03
2023-04-27T08:38:11.135Z,37.55
2023-04-27T08:40:46.112Z,36.79
2023-04-27T08:43:13.822Z,37.08
2023-04-27T08:45:41.325Z,36.98
2023-04-27T08:48:08.795Z,36.12
2023-04-27T08:50:37.824Z,35.27
2023-04-27T08:53:04.564Z,35.67
2023-04-27T08:55:31.512Z,35.49
2023-04-27T08:57:58.384Z,34.70
2023-04-27T09:00:24.959Z,34.50
2023-04-27T09:02:51.640Z,35.07
2023-04-27T09:08:03.826Z,34.90
2023-04-27T09:10:30.639Z,33.99
2023-04-27T09:12:58.474Z,33.08
2023-04-27T09:15:25.023Z,33.90
2023-04-27T09:17:51.788Z,35.26
2023-04-27T09:20:18.373Z,34.51
2023-04-27T09:22:45.174Z,35.83
2023-04-27T09:25:11.796Z,34.79
2023-04-27T09:27:38.560Z,33.65
2023-04-27T09:30:05.207Z,34.52
2023-04-27T09:32:32.076Z,35.12
2023-04-27T09:34:59.278Z,34.58
2023-04-27T09:37:25.954Z,33.92
2023-04-27T09:39:54.525Z,33.67
2023-04-27T09:42:21.017Z,33.87
2023-04-27T09:44:48.385Z,33.46
2023-04-27T09:47:18.904Z,33.70
2023-04-27T09:49:45.765Z,34.20
2023-04-27T09:52:12.864Z,34.38
2023-04-27T09:54:39.618Z,35.62
2023-04-27T09:57:09.163Z,34.15
2023-04-27T09:59:35.761Z,33.71
2023-04-27T10:02:10.068Z,34.16
2023-04-27T10:04:44.178Z,33.35
2023-04-27T10:07:11.828Z,32.79
2023-04-27T10:09:40.773Z,32.61
2023-04-27T10:12:10.549Z,32.77
2023-04-27T10:14:37.215Z,32.77
2023-04-27T10:17:04.978Z,32.63
2023-04-27T10:19:32.621Z,32.41
2023-04-27T10:21:59.326Z,31.98
2023-04-27T10:24:26.057Z,32.33
2023-04-27T10:26:53.189Z,32.49
2023-04-27T10:29:23.106Z,32.02
2023-04-27T10:31:52.388Z,31.75
2023-04-27T10:34:21.451Z,32.01
2023-04-27T10:36:48.957Z,32.23
2023-04-27T10:39:16.151Z,33.23
2023-04-27T10:41:43.765Z,33.07
2023-04-27T10:44:10.466Z,31.70
2023-04-27T10:46:37.464Z,31.67
2023-04-27T10:49:05.955Z,32.63
2023-04-27T10:51:32.831Z,33.39
2023-04-27T10:54:00.955Z,33.39
2023-04-27T10:56:27.697Z,33.47
2023-04-27T10:58:55.075Z,33.05
2023-04-27T11:01:21.773Z,34.21
2023-04-27T11:03:49.150Z,34.48
2023-04-27T11:06:16.422Z,34.61
2023-04-27T11:08:42.956Z,32.99
2023-04-27T11:11:10.053Z,32.79
2023-04-27T11:13:39.835Z,33.13
2023-04-27T11:16:06.570Z,34.02
2023-04-27T11:18:33.249Z,35.42
2023-04-27T11:20:59.757Z,34.58
2023-04-27T11:23:26.355Z,34.72
2023-04-27T11:25:53.989Z,34.79
2023-04-27T11:28:20.766Z,34.75
2023-04-27T11:30:47.352Z,35.44
2023-04-27T11:36:09.065Z,35.01
2023-04-27T11:38:35.909Z,35.66
2023-04-27T11:41:02.787Z,35.14
2023-04-27T11:43:30.460Z,34.70
2023-04-27T11:45:57.053Z,34.63
2023-04-27T11:48:25.724Z,34.30
2023-04-27T11:50:53.129Z,34.90
2023-04-27T11:53:20.846Z,33.65
2023-04-27T11:55:50.448Z,33.97
2023-04-27T11:58:17.785Z,33.46
2023-04-27T12:00:47.675Z,33.56
2023-04-27T12:03:16.982Z,34.02
2023-04-27T12:05:44.088Z,33.50
2023-04-27T12:08:11.031Z,33.24
2023-04-27T12:10:38.878Z,33.51
2023-04-27T12:13:06.047Z,33.28
2023-04-27T12:15:33.353Z,34.74
2023-04-27T12:18:00.097Z,33.08
2023-04-27T12:20:26.691Z,32.11
2023-04-27T12:23:00.147Z,31.29
2023-04-27T12:25:30.986Z,30.96
2023-04-27T12:28:00.721Z,30.25
2023-04-27T12:30:28.152Z,31.62
2023-04-27T12:32:55.012Z,31.08
2023-04-27T12:35:21.931Z,32.97
2023-04-27T12:37:48.793Z,31.50
2023-04-27T12:40:15.432Z,31.40
2023-04-27T12:42:42.514Z,32.18
2023-04-27T12:45:09.264Z,31.87
2023-04-27T12:47:58.094Z,31.14
2023-04-27T12:53:14.737Z,28.82
2023-04-27T12:55:41.259Z,28.46
2023-04-27T12:58:08.129Z,28.81
2023-04-27T13:00:34.878Z,29.08
2023-04-27T13:03:02.648Z,29.80
2023-04-27T13:05:32.239Z,28.85
2023-04-27T13:07:59.039Z,28.23
2023-04-27T13:10:25.496Z,28.19
2023-04-27T13:12:52.590Z,27.58
2023-04-27T13:15:20.271Z,26.04
2023-04-27T13:17:48.109Z,25.69
2023-04-27T13:20:15.522Z,25.24
2023-04-27T13:22:42.984Z,26.00
2023-04-27T13:25:09.646Z,25.59
2023-04-27T13:27:36.475Z,24.70
2023-04-27T13:30:05.492Z,25.02
2023-04-27T13:32:33.025Z,23.02
2023-04-27T13:35:01.786Z,23.96
2023-04-27T13:37:29.261Z,23.60
2023-04-27T13:39:58.231Z,22.69
2023-04-27T13:42:24.736Z,23.22
2023-04-27T13:44:52.562Z,23.19
2023-04-27T13:47:19.998Z,23.51
2023-04-27T13:49:46.622Z,23.97
2023-04-27T13:52:17.144Z,23.35
2023-04-27T13:54:44.306Z,23.37
2023-04-27T13:57:12.064Z,23.10
2023-04-27T13:59:39.196Z,23.53
2023-04-27T14:02:07.643Z,23.50
2023-04-27T14:07:28.381Z,22.49
2023-04-27T14:09:56.090Z,21.82
2023-04-27T14:15:10.396Z,22.51
2023-04-27T14:17:37.340Z,22.56
2023-04-27T14:20:05.057Z,22.41
2023-04-27T14:22:31.618Z,22.26
2023-04-27T14:24:58.193Z,22.50
2023-04-27T14:27:25.064Z,23.06
2023-04-27T14:29:52.633Z,22.74
2023-04-27T14:32:19.613Z,23.08
2023-04-27T14:34:46.482Z,23.88
2023-04-27T14:37:13.828Z,23.97
2023-04-27T14:39:40.780Z,23.39
2023-04-27T14:42:08.017Z,23.33
2023-04-27T14:44:36.911Z,23.40
2023-04-27T14:47:04.251Z,23.67
2023-04-27T14:49:30.833Z,24.10
2023-04-27T14:51:59.663Z,23.92
2023-04-27T14:54:28.090Z,23.88
2023-04-27T14:56:56.203Z,23.88
2023-04-27T14:59:23.936Z,23.23
2023-04-27T15:01:55.836Z,23.10
2023-04-27T15:04:22.796Z,23.49
2023-04-27T15:06:49.719Z,23.74
2023-04-27T15:09:17.564Z,23.86
2023-04-27T15:11:44.251Z,23.54
2023-04-27T15:14:12.083Z,25.36
2023-04-27T15:16:39.132Z,26.34
2023-04-27T15:19:06.136Z,26.89
2023-04-27T15:21:34.905Z,27.81
2023-04-27T15:24:01.828Z,27.79
2023-04-27T15:26:28.276Z,28.83
2023-04-27T15:28:55.144Z,27.64
2023-04-27T15:31:22.091Z,26.41
2023-04-27T15:36:29.414Z,27.78
2023-04-27T15:38:56.101Z,27.84
2023-04-27T15:41:24.670Z,26.93
2023-04-27T15:43:51.319Z,28.08
2023-04-27T15:46:18.193Z,29.33
2023-04-27T15:48:44.747Z,28.32
2023-04-27T15:51:12.341Z,27.17
2023-04-27T15:53:38.924Z,27.25
2023-04-27T15:56:05.450Z,26.05
2023-04-27T15:58:32.020Z,25.44
2023-04-27T16:00:59.330Z,25.77
2023-04-27T16:03:25.991Z,25.79
2023-04-27T16:08:21.991Z,25.28
2023-04-27T16:10:48.581Z,26.25
2023-04-27T16:13:17.291Z,26.24
2023-04-27T16:15:43.865Z,26.24
2023-04-27T16:21:03.469Z,26.63
2023-04-27T16:23:32.158Z,26.17
2023-04-27T16:25:59.709Z,25.39
2023-04-27T16:28:27.164Z,25.87
2023-04-27T16:30:53.910Z,25.78
2023-04-27T16:33:21.681Z,25.92
2023-04-27T16:35:48.252Z,26.33
2023-04-27T16:38:22.393Z,26.58
2023-04-27T16:40:50.091Z,27.13
2023-04-27T16:43:16.644Z,26.62
2023-04-27T16:45:43.475Z,27.69
2023-04-27T16:48:10.754Z,28.81
2023-04-27T16:50:37.553Z,28.39
2023-04-27T16:53:04.315Z,28.08
2023-04-27T16:55:30.828Z,28.28
2023-04-27T16:57:59.430Z,27.19
2023-04-27T17:00:26.333Z,27.42
2023-04-27T17:02:55.494Z,27.06
2023-04-27T17:05:24.337Z,27.20
2023-04-27T17:07:55.509Z,27.52
2023-04-27T17:10:22.021Z,26.92
2023-04-27T17:12:48.867Z,27.37
2023-04-27T17:18:30.710Z,26.83
2023-04-27T17:21:31.043Z,27.30
2023-04-27T17:24:00.053Z,27.52
2023-04-27T17:26:26.870Z,27.39
2023-04-27T17:32:11.163Z,27.04
2023-04-27T17:37:40.274Z,27.90
2023-04-27T17:40:06.830Z,27.98
2023-04-27T17:45:31.107Z,27.94
2023-04-27T17:48:04.777Z,28.37
2023-04-27T17:50:42.327Z,28.08
2023-04-27T17:53:14.485Z,29.18
2023-04-27T17:55:41.437Z,28.91
2023-04-27T17:58:08.020Z,29.28
2023-04-27T18:10:52.192Z,29.69
2023-04-27T18:13:15.783Z,30.08
2023-04-27T18:15:43.329Z,29.68
2023-04-27T18:18:30.166Z,29.44
2023-04-27T18:21:34.661Z,29.95
2023-04-27T18:33:58.972Z,30.91
2023-04-27T18:43:20.831Z,31.55
2023-04-27T18:45:48.638Z,31.19
2023-04-27T18:48:15.450Z,30.70
2023-04-27T18:50:42.275Z,30.66
2023-04-27T18:53:12.470Z,30.88
2023-04-27T18:55:39.576Z,30.72
2023-04-27T18:58:07.107Z,30.66
2023-04-27T19:00:33.997Z,30.66
2023-04-27T19:03:00.863Z,30.98
2023-04-27T19:05:28.333Z,30.83
2023-04-27T19:08:01.091Z,30.99
2023-04-27T19:10:27.962Z,30.80
2023-04-27T19:12:57.632Z,30.58
2023-04-27T19:15:24.233Z,31.52
2023-04-27T19:17:55.461Z,32.67
2023-04-27T19:20:28.949Z,33.19
2023-04-27T19:22:55.445Z,33.29
2023-04-27T19:25:25.985Z,33.70
2023-04-27T19:27:56.374Z,34.14
2023-04-27T19:30:23.266Z,34.36
2023-04-27T19:32:52.633Z,34.55
2023-04-27T19:35:26.853Z,35.04
2023-04-27T19:37:53.647Z,34.93
2023-04-27T19:40:36.249Z,34.47
2023-04-27T19:43:03.139Z,33.55
2023-04-27T19:45:34.321Z,33.13
2023-04-27T19:48:00.846Z,33.05
2023-04-27T19:50:27.731Z,32.35
2023-04-27T19:58:24.538Z,30.89
2023-04-27T20:00:51.311Z,31.07
2023-04-27T20:03:18.271Z,30.73
2023-04-27T20:05:47.255Z,31.59
2023-04-27T20:08:13.864Z,31.76
2023-04-27T20:10:40.796Z,30.97
2023-04-27T20:13:09.713Z,30.68
2023-04-27T20:15:36.327Z,30.78
2023-04-27T20:18:03.123Z,30.58
2023-04-27T20:20:30.761Z,30.79
2023-04-27T20:22:57.524Z,30.54
2023-04-27T20:25:31.324Z,30.73
2023-04-27T20:27:59.081Z,32.38
2023-04-27T20:30:29.031Z,31.69
2023-04-27T20:41:51.142Z,30.85
2023-04-27T20:44:22.794Z,30.62
2023-04-27T20:46:53.815Z,30.88
2023-04-27T20:49:32.142Z,30.74
2023-04-27T20:52:03.230Z,31.31
2023-04-27T20:54:32.163Z,31.53
2023-04-27T20:56:59.486Z,31.04
2023-04-27T20:59:26.049Z,31.26
2023-04-27T21:02:00.598Z,31.58
2023-04-27T21:04:27.784Z,31.87
2023-04-27T21:06:58.193Z,31.97
2023-04-27T21:09:26.769Z,31.92
2023-04-27T21:11:59.071Z,32.39
2023-04-27T21:14:33.115Z,33.68
2023-04-27T21:17:00.725Z,33.11
2023-04-27T21:19:27.386Z,32.61
2023-04-27T21:21:56.655Z,32.12
2023-04-27T21:24:23.829Z,33.25
2023-04-27T21:26:53.034Z,33.21
2023-04-27T21:29:26.721Z,33.44
2023-04-27T21:31:54.666Z,34.44
2023-04-27T21:34:21.481Z,34.82
2023-04-27T21:36:51.070Z,34.42
2023-04-27T21:39:18.328Z,33.97
2023-04-27T21:41:45.888Z,33.57
2023-04-27T21:44:16.789Z,34.33
2023-04-27T21:46:46.095Z,34.79
2023-04-27T21:49:13.449Z,35.11
2023-04-27T21:51:40.789Z,35.17
2023-04-27T21:54:09.741Z,34.96
2023-04-27T21:56:36.368Z,34.64
2023-04-27T21:59:04.990Z,34.25
2023-04-27T22:01:31.818Z,33.49
2023-04-27T22:04:05.865Z,33.70
2023-04-27T22:06:32.498Z,34.08
2023-04-27T22:09:01.513Z,34.47
2023-04-27T22:11:28.547Z,35.04
2023-04-27T22:13:55.010Z,34.36
2023-04-27T22:16:21.585Z,34.55
2023-04-27T22:18:48.387Z,34.99
2023-04-27T22:21:14.849Z,35.05
2023-04-27T22:23:41.715Z,34.54
2023-04-27T22:26:09.117Z,34.16
2023-04-27T22:28:36.082Z,34.57
2023-04-27T22:31:02.637Z,34.98
2023-04-27T22:33:36.591Z,34.69
2023-04-27T22:36:03.145Z,34.63
2023-04-27T22:38:32.847Z,34.44
2023-04-27T22:41:01.553Z,34.66
2023-04-27T22:43:28.291Z,35.76
2023-04-27T22:45:57.210Z,36.12
2023-04-27T22:48:24.844Z,36.18
2023-04-27T22:50:51.756Z,37.24
2023-04-27T22:53:18.359Z,38.66
2023-04-27T22:55:47.785Z,38.12
2023-04-27T22:58:14.424Z,37.53
2023-04-27T23:00:41.240Z,37.60
2023-04-27T23:03:09.970Z,37.51
2023-04-27T23:05:38.692Z,37.87
2023-04-27T23:08:07.699Z,37.76
2023-04-27T23:10:35.784Z,38.94
2023-04-27T23:13:03.950Z,39.69
2023-04-27T23:15:30.839Z,38.54
2023-04-27T23:17:57.538Z,37.53
2023-04-27T23:20:28.665Z,38.39
2023-04-27T23:22:57.082Z,38.32
2023-04-27T23:25:23.745Z,38.91
2023-04-27T23:27:52.177Z,39.67
2023-04-27T23:30:19.352Z,39.74
2023-04-27T23:32:46.314Z,39.46
2023-04-27T23:35:16.132Z,40.17
2023-04-27T23:37:43.519Z,40.56
2023-04-27T23:40:11.723Z,39.39
2023-04-27T23:42:40.496Z,38.78
2023-04-27T23:45:07.555Z,38.43
2023-04-27T23:47:34.485Z,38.89
2023-04-27T23:50:01.448Z,39.37
2023-04-27T23:52:32.735Z,39.09
2023-04-27T23:55:03.193Z,39.85
2023-04-27T23:57:33.754Z,39.88
